Time;durP1;ratioP1;P1;durP2;ratioP2;P2;SDS_P1;SDS_P2;PMS_P1;PMS_P2;Temp;Humidity;BMP_temperature;BMP_pressure;BME280_temperature;BME280_humidity;BME280_pressure;Samples;Min_cycle;Max_cycle;Signal;HPM_P1;HPM_P2
2022/01/12 00:01:05;;;;;;;142.35;46.35;;;3.60;99.90;;;;;;5040120;28;20044;-70
2022/01/12 00:03:32;;;;;;;102.95;43.25;;;3.60;99.90;;;;;;5045120;28;20053;-72
2022/01/12 00:05:57;;;;;;;113.90;42.17;;;3.60;99.90;;;;;;5037638;28;20060;-71
2022/01/12 00:08:23;;;;;;;110.50;42.72;;;3.60;99.90;;;;;;5036920;28;20045;-71
2022/01/12 00:10:49;;;;;;;140.43;46.05;;;3.60;99.90;;;;;;5019794;28;20433;-69
2022/01/12 00:13:15;;;;;;;133.32;46.40;;;3.60;99.90;;;;;;5037560;28;20049;-70
2022/01/12 00:15:40;;;;;;;167.07;48.15;;;3.60;99.90;;;;;;5037693;28;20041;-73
2022/01/12 00:18:06;;;;;;;138.43;45.47;;;3.60;99.90;;;;;;5037585;28;20431;-71
2022/01/12 00:20:31;;;;;;;116.65;44.53;;;3.60;99.90;;;;;;5019730;28;20057;-72
2022/01/12 00:22:57;;;;;;;177.07;48.42;;;3.60;99.90;;;;;;5019981;28;20466;-70
2022/01/12 00:25:27;;;;;;;160.13;45.90;;;3.60;99.90;;;;;;5020202;28;20370;-71
2022/01/12 00:33:22;;;;;;;180.45;48.60;;;3.60;99.90;;;;;;5039394;28;20115;-73
2022/01/12 00:35:53;;;;;;;158.68;46.17;;;3.60;99.90;;;;;;5037479;28;20057;-71
2022/01/12 00:38:21;;;;;;;200.32;49.78;;;3.70;99.90;;;;;;5019335;28;20064;-71
2022/01/12 00:40:52;;;;;;;320.48;56.85;;;3.70;99.90;;;;;;5037208;28;20049;-70
2022/01/12 00:43:19;;;;;;;192.70;48.22;;;3.70;99.90;;;;;;5003301;28;20060;-70
2022/01/12 00:45:46;;;;;;;217.20;48.17;;;3.70;99.90;;;;;;5036718;28;20126;-73
2022/01/12 00:48:13;;;;;;;199.13;47.45;;;3.70;99.90;;;;;;5019380;28;20068;-71
2022/01/12 00:50:40;;;;;;;215.48;48.90;;;4.00;99.90;;;;;;5036921;28;20052;-70
2022/01/12 00:53:06;;;;;;;199.27;47.65;;;3.70;99.90;;;;;;5019139;28;20107;-71
2022/01/12 00:55:32;;;;;;;137.43;43.70;;;3.70;99.90;;;;;;5036910;28;20128;-72
2022/01/12 00:57:58;;;;;;;182.18;47.97;;;3.70;99.90;;;;;;5037200;28;20121;-69
2022/01/12 01:00:25;;;;;;;240.60;50.58;;;3.70;99.90;;;;;;5019298;28;20153;-72
2022/01/12 01:02:51;;;;;;;150.57;45.85;;;3.70;99.90;;;;;;5043022;28;20373;-70
2022/01/12 01:05:20;;;;;;;295.85;54.20;;;3.70;99.90;;;;;;5039758;28;20045;-71
2022/01/12 01:07:46;;;;;;;274.02;52.95;;;3.70;99.90;;;;;;5056669;28;20037;-70
2022/01/12 01:10:17;;;;;;;163.48;47.75;;;3.70;99.90;;;;;;5038972;28;20068;-71
2022/01/12 01:12:45;;;;;;;164.85;45.22;;;3.70;99.90;;;;;;5056483;28;20417;-71
2022/01/12 01:15:14;;;;;;;198.38;48.28;;;3.70;99.90;;;;;;5056642;28;20099;-72
2022/01/12 01:25:51;;;;;;;206.65;47.45;;;3.80;99.90;;;;;;5038900;28;20170;-72
2022/01/12 01:28:17;;;;;;;161.18;45.35;;;3.80;99.90;;;;;;5038806;28;20504;-71
2022/01/12 01:30:45;;;;;;;196.15;46.03;;;3.80;99.90;;;;;;5056168;28;20045;-72
2022/01/12 01:33:15;;;;;;;307.60;52.38;;;3.80;99.90;;;;;;5027081;28;20059;-71
2022/01/12 01:35:46;;;;;;;285.20;51.22;;;3.80;99.90;;;;;;5018841;28;20103;-72
2022/01/12 01:38:12;;;;;;;165.95;45.88;;;3.80;99.90;;;;;;5019011;28;20045;-72
2022/01/12 01:40:41;;;;;;;246.98;49.22;;;3.80;99.90;;;;;;5036322;28;20060;-73
2022/01/12 01:43:16;;;;;;;244.93;47.92;;;3.80;99.90;;;;;;5002399;28;20060;-69
2022/01/12 01:53:55;;;;;;;213.75;48.42;;;3.80;99.90;;;;;;5035955;28;20064;-70
2022/01/12 01:56:21;;;;;;;384.75;54.20;;;3.80;99.90;;;;;;5018661;28;20056;-72
2022/01/12 01:58:48;;;;;;;271.58;47.95;;;3.80;99.90;;;;;;5018243;28;20527;-71
2022/01/12 02:01:14;;;;;;;299.98;50.38;;;3.80;99.90;;;;;;5035919;28;20136;-70
2022/01/12 02:03:41;;;;;;;226.55;46.90;;;3.80;99.90;;;;;;5049740;28;20330;-72
2022/01/12 02:06:07;;;;;;;195.18;44.53;;;4.00;99.90;;;;;;5053909;28;20442;-71
2022/01/12 02:08:35;;;;;;;328.15;50.10;;;3.80;99.90;;;;;;5037576;28;20049;-73
2022/01/12 02:11:02;;;;;;;183.50;44.45;;;3.80;99.90;;;;;;5055565;28;20057;-70
2022/01/12 02:13:27;;;;;;;361.10;53.38;;;3.90;99.90;;;;;;5055149;28;20113;-71
2022/01/12 02:15:54;;;;;;;212.93;46.60;;;3.90;99.90;;;;;;5055138;28;20045;-72
2022/01/12 02:35:53;;;;;;;360.38;52.47;;;3.90;99.90;;;;;;5012435;28;20080;-72
2022/01/12 02:40:30;;;;;;;476.00;57.38;;;3.90;99.90;;;;;;5017177;28;20064;-72
2022/01/12 02:43:26;;;;;;;258.55;47.63;;;3.90;99.90;;;;;;5018048;28;20088;-70
2022/01/12 02:51:33;;;;;;;283.23;48.03;;;3.90;99.90;;;;;;4994955;28;20143;-71
2022/01/12 02:53:59;;;;;;;239.80;45.53;;;4.00;99.90;;;;;;5017211;28;20049;-71
2022/01/12 02:56:31;;;;;;;182.77;41.45;;;4.00;99.90;;;;;;5017699;28;20045;-71
2022/01/12 02:58:58;;;;;;;217.88;45.38;;;4.00;99.90;;;;;;5017352;28;20045;-70
2022/01/12 03:04:03;;;;;;;205.63;43.08;;;4.00;99.90;;;;;;5017157;28;20462;-71
2022/01/12 03:06:33;;;;;;;145.80;40.55;;;4.00;99.90;;;;;;5034748;28;20057;-69
2022/01/12 03:09:00;;;;;;;309.13;47.78;;;4.00;99.90;;;;;;5034247;28;20096;-72
2022/01/12 03:11:28;;;;;;;337.38;48.88;;;4.00;99.90;;;;;;5016623;28;20050;-72
2022/01/12 03:13:54;;;;;;;363.60;50.22;;;4.00;99.90;;;;;;5034642;28;20046;-71
2022/01/12 03:16:24;;;;;;;226.35;44.13;;;4.00;99.90;;;;;;5017616;28;20480;-70
2022/01/12 03:18:58;;;;;;;188.05;43.53;;;4.00;99.90;;;;;;5017568;28;20072;-72
2022/01/12 03:21:34;;;;;;;249.45;46.80;;;4.00;99.90;;;;;;5035075;28;20369;-70
2022/01/12 03:24:00;;;;;;;186.95;44.85;;;4.00;99.90;;;;;;5034663;28;20053;-72
2022/01/12 03:26:29;;;;;;;307.67;47.95;;;3.90;99.90;;;;;;5034734;28;20077;-71
2022/01/12 03:28:56;;;;;;;366.13;52.33;;;3.90;99.90;;;;;;5034493;28;20053;-70
2022/01/12 03:31:24;;;;;;;306.23;48.78;;;3.90;99.90;;;;;;5034441;28;20056;-71
2022/01/12 03:33:58;;;;;;;406.45;52.15;;;3.90;99.90;;;;;;5052238;28;20045;-70
2022/01/12 03:39:29;;;;;;;153.27;42.30;;;3.80;99.90;;;;;;4992888;28;20492;-72
2022/01/12 03:41:54;;;;;;;283.05;45.95;;;3.80;99.90;;;;;;4977415;28;20046;-69
2022/01/12 03:44:20;;;;;;;163.68;40.50;;;3.70;99.90;;;;;;5006263;28;20061;-70
2022/01/12 03:46:48;;;;;;;379.17;50.15;;;3.70;99.90;;;;;;5058357;28;20068;-71
2022/01/12 03:49:15;;;;;;;246.93;43.20;;;3.60;99.90;;;;;;5058005;28;20446;-70
2022/01/12 03:51:41;;;;;;;455.15;49.13;;;3.60;99.90;;;;;;5057728;28;20055;-69
2022/01/12 03:54:07;;;;;;;436.90;47.65;;;3.50;99.90;;;;;;5057967;28;20049;-72
2022/01/12 03:56:33;;;;;;;367.65;45.42;;;3.50;99.90;;;;;;5040420;28;20049;-70
2022/01/12 03:58:58;;;;;;;320.95;43.40;;;3.40;99.90;;;;;;5058315;28;20456;-72
2022/01/12 04:01:24;;;;;;;527.15;47.88;;;3.40;99.90;;;;;;5040460;28;20059;-72
2022/01/12 04:04:00;;;;;;;1028.22;69.72;;;3.40;99.90;;;;;;5020412;28;20052;-71
2022/01/12 04:09:11;;;;;;;656.38;52.13;;;3.40;99.90;;;;;;5020352;28;20485;-71
2022/01/12 04:11:36;;;;;;;647.45;50.65;;;3.40;99.90;;;;;;5037567;28;20057;-73
2022/01/12 04:14:03;;;;;;;605.80;49.38;;;3.40;99.90;;;;;;5037753;28;20050;-72
2022/01/12 04:16:29;;;;;;;703.92;52.42;;;3.40;99.90;;;;;;5020176;28;20060;-72
2022/01/12 04:18:54;;;;;;;505.25;45.55;;;3.40;99.90;;;;;;5037866;28;20045;-70
2022/01/12 04:21:27;;;;;;;466.08;42.13;;;3.30;99.90;;;;;;5020404;28;20132;-71
2022/01/12 04:23:53;;;;;;;697.63;54.67;;;3.30;99.90;;;;;;5037808;28;20060;-71
2022/01/12 04:26:19;;;;;;;451.40;44.67;;;3.30;99.90;;;;;;4986622;28;20598;-71
2022/01/12 04:28:45;;;;;;;647.03;53.00;;;3.30;99.90;;;;;;5037403;28;20128;-70
2022/01/12 04:31:11;;;;;;;525.30;46.85;;;3.30;99.90;;;;;;5037709;28;20421;-70
2022/01/12 04:33:38;;;;;;;379.00;38.72;;;3.30;99.90;;;;;;5057050;28;20099;-71
2022/01/12 04:36:06;;;;;;;419.83;41.08;;;3.30;99.90;;;;;;5065484;28;20095;-71
2022/01/12 04:38:34;;;;;;;396.27;38.78;;;3.30;99.90;;;;;;5077276;28;20044;-73
2022/01/12 04:41:01;;;;;;;335.13;37.20;;;3.30;99.90;;;;;;5059483;28;20464;-71
2022/01/12 04:43:27;;;;;;;401.73;38.83;;;3.20;99.90;;;;;;5076972;28;20123;-71
2022/01/12 04:50:53;;;;;;;392.65;40.20;;;3.20;99.90;;;;;;5077030;28;20056;-70
2022/01/12 04:53:19;;;;;;;300.30;32.55;;;3.20;99.90;;;;;;5077038;28;20052;-70
2022/01/12 04:55:47;;;;;;;537.42;44.25;;;3.20;99.90;;;;;;5076686;28;20044;-72
2022/01/12 04:58:14;;;;;;;248.80;30.15;;;3.20;99.90;;;;;;5077393;28;20314;-69
2022/01/12 05:00:42;;;;;;;284.33;34.00;;;3.20;99.90;;;;;;5056564;28;20063;-70
2022/01/12 05:13:52;;;;;;;330.58;35.22;;;3.00;99.90;;;;;;5006067;28;20385;-70
2022/01/12 05:16:19;;;;;;;459.80;42.05;;;3.00;99.90;;;;;;5036470;28;20109;-69
2022/01/12 05:18:47;;;;;;;288.52;32.60;;;2.90;99.90;;;;;;5019145;28;20053;-70
2022/01/12 05:21:13;;;;;;;334.63;35.00;;;2.90;99.90;;;;;;5019390;28;20049;-70
2022/01/12 05:23:39;;;;;;;267.17;30.88;;;2.80;99.90;;;;;;5036668;28;20049;-73
2022/01/12 05:26:06;;;;;;;302.77;32.45;;;2.80;99.90;;;;;;5068292;28;20071;-69
2022/01/12 05:28:32;;;;;;;251.73;29.35;;;2.90;99.90;;;;;;5020644;28;20061;-70
2022/01/12 05:30:59;;;;;;;282.45;31.73;;;2.80;99.90;;;;;;5033208;28;20426;-70
2022/01/12 05:33:25;;;;;;;479.52;41.13;;;2.70;99.90;;;;;;5035940;28;20132;-71
2022/01/12 05:35:53;;;;;;;256.67;30.00;;;2.70;99.90;;;;;;5018574;28;20041;-69
2022/01/12 05:38:19;;;;;;;268.33;30.48;;;2.70;99.90;;;;;;5036377;28;20412;-68
2022/01/12 05:40:48;;;;;;;427.40;36.13;;;2.60;99.90;;;;;;5019009;28;20049;-69
2022/01/12 05:43:20;;;;;;;313.83;31.85;;;2.60;99.90;;;;;;5036075;28;20049;-71
2022/01/12 05:45:46;;;;;;;130.30;23.70;;;2.60;99.90;;;;;;5035931;28;20076;-71
2022/01/12 05:50:41;;;;;;;241.48;28.88;;;2.60;99.90;;;;;;5018241;28;20084;-73
2022/01/12 05:53:07;;;;;;;221.95;26.92;;;2.60;99.90;;;;;;5018307;28;20053;-69
2022/01/12 05:55:33;;;;;;;196.10;28.00;;;2.50;99.90;;;;;;5017920;28;20047;-69
2022/01/12 05:57:59;;;;;;;325.38;34.22;;;2.50;99.90;;;;;;5035875;28;20079;-71
2022/01/12 06:00:26;;;;;;;246.52;28.70;;;2.60;99.90;;;;;;5020786;28;20060;-70
2022/01/12 06:02:53;;;;;;;272.80;31.42;;;2.40;99.90;;;;;;5034182;28;20053;-69
2022/01/12 06:05:20;;;;;;;358.25;34.97;;;2.40;99.90;;;;;;5017968;28;20405;-69
2022/01/12 06:07:47;;;;;;;145.18;23.30;;;2.40;99.90;;;;;;5017902;28;20085;-70
2022/01/12 06:10:13;;;;;;;149.68;23.50;;;2.30;99.90;;;;;;5035301;28;20076;-69
2022/01/12 06:12:39;;;;;;;111.40;22.35;;;2.50;99.90;;;;;;5035594;28;20049;-71
2022/01/12 06:15:06;;;;;;;196.60;26.17;;;2.40;99.90;;;;;;5035346;28;20120;-72
2022/01/12 06:17:31;;;;;;;286.63;31.40;;;2.20;99.90;;;;;;5035232;28;20050;-71
2022/01/12 06:19:57;;;;;;;140.35;28.75;;;2.20;99.90;;;;;;5017826;28;20532;-72
2022/01/12 06:22:24;;;;;;;340.80;42.38;;;2.50;99.90;;;;;;5018019;28;20045;-72
2022/01/12 06:24:50;;;;;;;224.38;36.28;;;2.20;99.90;;;;;;5018052;28;20045;-71
2022/01/12 06:27:18;;;;;;;305.75;37.47;;;2.10;99.90;;;;;;5034324;28;20365;-70
2022/01/12 06:30:02;;;;;;;175.05;27.38;;;2.10;99.90;;;;;;5035858;28;20055;-69
2022/01/12 06:32:28;;;;;;;234.68;29.33;;;2.10;99.90;;;;;;5033060;28;20118;-71
2022/01/12 06:34:55;;;;;;;185.95;27.15;;;2.10;99.90;;;;;;5054467;28;20131;-71
2022/01/12 06:37:21;;;;;;;115.72;24.83;;;2.00;99.90;;;;;;5048442;28;20378;-70
2022/01/12 06:39:46;;;;;;;214.88;32.53;;;2.00;99.90;;;;;;5053422;28;20047;-70
2022/01/12 06:42:12;;;;;;;288.30;42.05;;;2.00;99.90;;;;;;5053737;28;20044;-70
2022/01/12 06:44:37;;;;;;;276.02;44.50;;;2.00;99.90;;;;;;5019944;28;20045;-72
2022/01/12 06:47:04;;;;;;;159.05;42.33;;;2.00;99.90;;;;;;5044415;28;20048;-71
2022/01/12 06:49:30;;;;;;;197.82;39.60;;;2.00;99.90;;;;;;5049814;28;20110;-70
2022/01/12 06:51:56;;;;;;;92.13;27.65;;;2.00;99.90;;;;;;5025435;28;20103;-70
2022/01/12 06:54:22;;;;;;;87.93;27.33;;;2.10;99.90;;;;;;5030553;28;20042;-70
2022/01/12 06:56:47;;;;;;;156.57;29.27;;;2.10;99.90;;;;;;5038561;28;20075;-70
2022/01/12 06:59:13;;;;;;;152.43;29.35;;;2.10;99.90;;;;;;5031301;28;20051;-70
2022/01/12 07:01:38;;;;;;;182.43;32.40;;;2.10;99.90;;;;;;5043621;28;20056;-71
2022/01/12 07:04:04;;;;;;;120.05;29.73;;;2.00;99.90;;;;;;5032652;28;20074;-71
2022/01/12 07:06:30;;;;;;;223.23;33.30;;;2.10;99.90;;;;;;5033672;28;20053;-68
2022/01/12 07:08:55;;;;;;;226.20;30.95;;;2.00;99.90;;;;;;5051823;28;20047;-70
2022/01/12 07:11:21;;;;;;;99.35;24.23;;;2.10;99.90;;;;;;5054552;28;20056;-73
2022/01/12 07:13:47;;;;;;;143.18;25.55;;;2.10;99.90;;;;;;5054049;28;20067;-72
2022/01/12 07:16:13;;;;;;;289.17;31.65;;;2.10;99.90;;;;;;5054261;28;20488;-71
2022/01/12 07:18:39;;;;;;;140.95;24.17;;;2.10;99.90;;;;;;5047593;28;20473;-71
2022/01/12 07:21:05;;;;;;;94.03;22.52;;;2.10;99.90;;;;;;5037457;28;20377;-72
2022/01/12 07:23:30;;;;;;;71.30;22.58;;;2.10;99.90;;;;;;5055829;28;20351;-70
2022/01/12 07:25:56;;;;;;;137.57;25.08;;;2.10;99.90;;;;;;5037797;28;20053;-71
2022/01/12 07:28:22;;;;;;;105.95;22.00;;;2.10;99.90;;;;;;5054909;28;20052;-71
2022/01/12 07:30:49;;;;;;;270.58;28.38;;;2.10;99.90;;;;;;5058732;28;20048;-71
2022/01/12 07:33:15;;;;;;;120.60;22.88;;;2.10;99.90;;;;;;5036310;28;20049;-72
2022/01/12 07:35:42;;;;;;;306.58;31.40;;;2.10;99.90;;;;;;5055841;28;20099;-73
2022/01/12 07:38:08;;;;;;;141.02;23.40;;;2.20;99.90;;;;;;5044977;28;20053;-71
2022/01/12 07:40:35;;;;;;;140.75;22.63;;;2.20;99.90;;;;;;5056632;28;20055;-69
2022/01/12 07:43:05;;;;;;;136.35;23.00;;;2.20;99.90;;;;;;5057833;28;20103;-71
2022/01/12 07:45:31;;;;;;;282.20;27.88;;;2.20;99.90;;;;;;5057874;28;20397;-70
2022/01/12 07:47:57;;;;;;;145.25;22.23;;;2.30;99.90;;;;;;5037020;28;20053;-72
2022/01/12 07:50:23;;;;;;;138.07;21.15;;;2.30;99.90;;;;;;5050660;28;20096;-71
2022/01/12 07:52:53;;;;;;;237.30;25.08;;;2.30;99.90;;;;;;5037691;28;20179;-72
2022/01/12 07:55:22;;;;;;;179.75;23.10;;;2.30;99.90;;;;;;5041490;28;20373;-72
2022/01/12 07:57:50;;;;;;;206.00;22.80;;;2.40;99.90;;;;;;5036343;28;20441;-73
2022/01/12 08:00:16;;;;;;;303.75;28.60;;;2.40;99.90;;;;;;5038021;28;20064;-72
2022/01/12 08:02:42;;;;;;;191.05;22.50;;;2.30;99.90;;;;;;5035573;28;20441;-72
2022/01/12 08:05:08;;;;;;;183.07;22.38;;;2.30;99.90;;;;;;5048374;28;20049;-71
2022/01/12 08:07:36;;;;;;;282.70;28.17;;;2.40;99.90;;;;;;5014996;28;20120;-72
2022/01/12 08:10:04;;;;;;;122.45;18.83;;;2.40;99.90;;;;;;5030114;28;20064;-72
2022/01/12 08:12:29;;;;;;;188.68;21.73;;;2.40;99.90;;;;;;5052669;28;20049;-72
2022/01/12 08:14:55;;;;;;;257.05;26.05;;;2.40;99.90;;;;;;5049203;28;20053;-74
2022/01/12 08:17:20;;;;;;;123.25;19.15;;;2.50;99.90;;;;;;5037277;28;20060;-74
2022/01/12 08:19:46;;;;;;;103.65;18.42;;;2.50;99.90;;;;;;5034727;28;20092;-72
2022/01/12 08:22:12;;;;;;;328.70;30.08;;;2.50;99.90;;;;;;5030201;28;20046;-71
2022/01/12 08:24:37;;;;;;;142.30;20.92;;;2.50;99.90;;;;;;5030607;28;20369;-71
2022/01/12 08:27:03;;;;;;;348.38;29.75;;;2.60;99.90;;;;;;5052536;28;20041;-73
2022/01/12 08:29:29;;;;;;;144.77;20.48;;;2.60;99.90;;;;;;5056409;28;20453;-73
2022/01/12 08:31:55;;;;;;;104.40;18.58;;;2.70;99.90;;;;;;5035018;28;20081;-73
2022/01/12 08:34:22;;;;;;;149.25;20.42;;;2.70;99.90;;;;;;5031872;28;20068;-71
2022/01/12 08:36:48;;;;;;;236.68;24.45;;;2.70;99.90;;;;;;5050176;28;20087;-70
2022/01/12 08:39:13;;;;;;;244.60;25.23;;;2.70;99.90;;;;;;5027651;28;20077;-69
2022/01/12 08:41:39;;;;;;;175.70;20.40;;;2.70;99.90;;;;;;5054553;28;20048;-70
2022/01/12 08:44:06;;;;;;;95.72;18.35;;;2.80;99.90;;;;;;5045992;28;20049;-72
2022/01/12 08:46:32;;;;;;;64.97;16.90;;;2.80;99.90;;;;;;5036787;28;20056;-72
2022/01/12 08:48:58;;;;;;;245.95;22.30;;;2.90;99.90;;;;;;5027170;28;20116;-72
2022/01/12 08:51:23;;;;;;;219.48;21.27;;;2.90;99.90;;;;;;5033449;28;20115;-72
2022/01/12 08:53:49;;;;;;;178.95;19.75;;;2.90;99.90;;;;;;5047129;28;20033;-72
2022/01/12 08:56:15;;;;;;;337.73;29.08;;;3.00;99.90;;;;;;5046972;28;20364;-70
2022/01/12 08:58:41;;;;;;;211.63;23.17;;;3.00;99.90;;;;;;5027817;28;20057;-71
2022/01/12 09:01:09;;;;;;;235.25;24.30;;;3.00;99.90;;;;;;5044807;28;20040;-70
2022/01/12 09:03:35;;;;;;;94.15;18.17;;;3.10;99.90;;;;;;5051787;28;20041;-72
2022/01/12 09:06:03;;;;;;;184.93;21.13;;;3.20;99.90;;;;;;5056520;28;20079;-70
2022/01/12 09:08:29;;;;;;;67.07;14.20;;;3.20;99.90;;;;;;5034675;28;20120;-70
2022/01/12 09:10:55;;;;;;;49.50;13.80;;;3.30;99.90;;;;;;5050937;28;20064;-69
2022/01/12 09:13:20;;;;;;;79.10;16.98;;;3.40;99.90;;;;;;5049528;28;20041;-71
2022/01/12 09:15:46;;;;;;;87.13;17.95;;;3.40;99.90;;;;;;5030732;28;20041;-70
2022/01/12 09:18:12;;;;;;;92.32;17.65;;;3.50;99.90;;;;;;5007570;28;20121;-70
2022/01/12 09:20:37;;;;;;;167.20;18.77;;;3.60;99.90;;;;;;5032387;28;20475;-72
2022/01/12 09:23:04;;;;;;;83.72;16.27;;;3.60;99.90;;;;;;5029561;28;20102;-71
2022/01/12 09:25:33;;;;;;;89.70;17.10;;;3.70;99.90;;;;;;5023149;28;20053;-73
2022/01/12 09:28:02;;;;;;;61.80;14.40;;;3.70;99.90;;;;;;5033862;28;20071;-71
2022/01/12 09:30:28;;;;;;;74.05;16.33;;;3.80;99.90;;;;;;5036408;28;20071;-71
2022/01/12 09:32:53;;;;;;;100.05;15.93;;;3.90;99.90;;;;;;5036100;28;20445;-72
2022/01/12 09:35:19;;;;;;;225.50;19.70;;;3.90;99.90;;;;;;5035666;28;20053;-71
2022/01/12 09:37:44;;;;;;;69.07;13.10;;;4.00;99.90;;;;;;5035820;28;20041;-71
2022/01/12 09:40:10;;;;;;;153.23;15.27;;;4.10;99.90;;;;;;5035039;28;20372;-72
2022/01/12 09:42:37;;;;;;;156.63;17.25;;;4.10;99.90;;;;;;5025719;28;20103;-71
2022/01/12 09:45:03;;;;;;;88.32;12.13;;;4.20;99.90;;;;;;5018918;28;20107;-74
2022/01/12 09:47:29;;;;;;;81.63;12.70;;;4.20;99.90;;;;;;5035930;28;20107;-72
2022/01/12 09:49:54;;;;;;;100.20;12.93;;;4.30;99.90;;;;;;5034908;28;20045;-71
2022/01/12 09:52:21;;;;;;;211.20;18.25;;;4.20;99.90;;;;;;5026955;28;20094;-71
2022/01/12 09:54:46;;;;;;;108.22;13.35;;;4.30;99.90;;;;;;5018754;28;20400;-73
2022/01/12 09:57:13;;;;;;;103.68;12.85;;;4.30;99.90;;;;;;5018328;28;20140;-71
2022/01/12 09:59:38;;;;;;;122.32;12.25;;;4.30;99.90;;;;;;5002091;28;20061;-74
2022/01/12 10:02:12;;;;;;;94.80;10.25;;;4.40;99.90;;;;;;5018075;28;20057;-73
2022/01/12 10:04:38;;;;;;;94.43;9.90;;;4.40;99.90;;;;;;5035636;28;20045;-73
2022/01/12 10:07:04;;;;;;;66.72;9.45;;;4.40;99.90;;;;;;5017727;28;20095;-71
2022/01/12 10:09:34;;;;;;;104.18;11.02;;;4.50;99.90;;;;;;5035617;28;20354;-70
2022/01/12 10:12:01;;;;;;;101.43;10.77;;;4.50;99.90;;;;;;5018004;28;20053;-73
2022/01/12 10:14:50;;;;;;;165.07;12.40;;;4.50;99.90;;;;;;5018049;28;20057;-74
2022/01/12 10:17:30;;;;;;;95.03;9.43;;;4.50;99.90;;;;;;5035219;28;20504;-72
2022/01/12 10:20:04;;;;;;;130.88;11.68;;;4.60;99.90;;;;;;5018869;28;20045;-74
2022/01/12 10:22:30;;;;;;;100.70;8.73;;;4.60;99.90;;;;;;5035411;28;20056;-71
2022/01/12 10:24:56;;;;;;;66.82;8.40;;;4.60;99.90;;;;;;5018067;28;20045;-71
2022/01/12 10:27:21;;;;;;;37.65;8.15;;;4.70;99.90;;;;;;5035196;28;20076;-72
2022/01/12 10:29:56;;;;;;;59.17;8.85;;;4.70;99.90;;;;;;5035097;28;20454;-72
2022/01/12 10:32:22;;;;;;;70.72;8.77;;;4.70;99.90;;;;;;5034588;28;20053;-72
2022/01/12 10:34:51;;;;;;;165.23;12.60;;;4.80;99.90;;;;;;5035055;28;20107;-72
2022/01/12 10:37:22;;;;;;;88.88;9.75;;;4.90;99.90;;;;;;5001301;28;20055;-72
2022/01/12 10:39:49;;;;;;;91.63;9.85;;;4.90;99.90;;;;;;5034753;28;20037;-71
2022/01/12 10:42:18;;;;;;;119.95;10.85;;;4.90;99.90;;;;;;5034853;28;20041;-72
2022/01/12 10:44:48;;;;;;;175.50;12.38;;;5.00;99.90;;;;;;5030536;28;20056;-73
2022/01/12 10:47:16;;;;;;;83.80;10.38;;;5.00;99.90;;;;;;5055259;28;20056;-72
2022/01/12 10:49:58;;;;;;;75.72;10.85;;;5.10;99.90;;;;;;5054699;28;20080;-72
2022/01/12 10:52:30;;;;;;;62.72;11.15;;;5.10;99.90;;;;;;5054845;28;20094;-72
2022/01/12 10:54:59;;;;;;;90.25;11.27;;;5.20;99.90;;;;;;5054467;28;20417;-72
2022/01/12 10:57:27;;;;;;;85.55;10.32;;;5.20;99.90;;;;;;5055154;28;20045;-73
2022/01/12 11:00:07;;;;;;;71.40;10.10;;;5.20;99.90;;;;;;5054688;28;20052;-72
2022/01/12 11:02:34;;;;;;;57.22;9.50;;;5.20;99.90;;;;;;5054596;28;20463;-73
2022/01/12 11:05:01;;;;;;;76.78;11.02;;;5.20;99.90;;;;;;5054712;28;20052;-71
2022/01/12 11:07:30;;;;;;;69.78;10.20;;;5.20;99.90;;;;;;5054619;28;20041;-71
2022/01/12 11:09:58;;;;;;;89.68;11.20;;;5.30;99.90;;;;;;5051882;28;20041;-72
2022/01/12 11:12:24;;;;;;;117.50;11.98;;;5.20;99.90;;;;;;5037090;28;20053;-74
2022/01/12 11:14:50;;;;;;;70.18;10.70;;;5.30;99.90;;;;;;5003375;28;20365;-73
2022/01/12 11:17:16;;;;;;;141.77;12.45;;;5.30;99.90;;;;;;5036720;28;20045;-72
2022/01/12 11:20:07;;;;;;;84.68;10.80;;;5.40;99.90;;;;;;5037067;28;20150;-73
2022/01/12 11:23:00;;;;;;;103.70;11.70;;;5.40;99.90;;;;;;5036338;28;20052;-71
2022/01/12 11:25:31;;;;;;;83.30;10.98;;;5.40;99.90;;;;;;5054784;28;20055;-72
2022/01/12 11:28:15;;;;;;;33.25;10.10;;;5.50;99.90;;;;;;5037133;28;20045;-71
2022/01/12 11:31:00;;;;;;;93.25;11.65;;;5.60;99.90;;;;;;5036580;28;20080;-71
2022/01/12 11:33:31;;;;;;;66.20;11.32;;;5.60;99.90;;;;;;5037332;28;20365;-73
2022/01/12 11:36:19;;;;;;;105.05;11.68;;;5.70;99.90;;;;;;5037037;28;20048;-71
2022/01/12 11:38:49;;;;;;;48.70;11.23;;;5.70;99.90;;;;;;5037084;28;20102;-71
2022/01/12 11:41:22;;;;;;;29.67;9.90;;;5.70;99.90;;;;;;5032340;28;20088;-70
2022/01/12 11:43:53;;;;;;;46.60;10.40;;;5.80;99.90;;;;;;5034715;28;20111;-72
2022/01/12 11:46:26;;;;;;;32.17;10.05;;;5.80;99.90;;;;;;5034755;28;20404;-71
2022/01/12 11:48:58;;;;;;;60.25;10.98;;;5.90;99.90;;;;;;5017133;28;20060;-72
2022/01/12 11:51:36;;;;;;;36.65;9.50;;;5.90;99.90;;;;;;5017177;28;20068;-70
2022/01/12 11:54:13;;;;;;;51.42;11.50;;;6.00;99.90;;;;;;5027029;28;20051;-71
2022/01/12 11:56:52;;;;;;;25.83;9.60;;;6.00;99.90;;;;;;5044065;28;20045;-72
2022/01/12 11:59:20;;;;;;;30.45;10.32;;;6.00;99.90;;;;;;5034347;28;20060;-73
2022/01/12 12:02:07;;;;;;;34.50;10.38;;;6.10;99.90;;;;;;5034329;28;20045;-73
2022/01/12 12:04:34;;;;;;;28.98;9.73;;;6.10;99.90;;;;;;5034319;28;20045;-71
2022/01/12 12:07:04;;;;;;;52.85;11.05;;;6.10;99.90;;;;;;5037631;28;20087;-74
2022/01/12 12:09:39;;;;;;;35.78;10.30;;;6.20;99.90;;;;;;5020132;28;20041;-71
2022/01/12 12:12:13;;;;;;;22.40;10.18;;;6.20;99.90;;;;;;5057776;28;20092;-71
2022/01/12 12:14:39;;;;;;;33.95;10.25;;;6.10;99.90;;;;;;5057563;28;20037;-71
2022/01/12 12:17:05;;;;;;;53.55;10.45;;;6.10;99.90;;;;;;5039887;28;20059;-71
2022/01/12 12:19:35;;;;;;;57.90;11.32;;;6.10;99.90;;;;;;5057631;28;20115;-71
2022/01/12 12:22:10;;;;;;;31.30;10.50;;;6.10;99.90;;;;;;5057630;28;20044;-71
2022/01/12 12:24:36;;;;;;;27.90;11.05;;;6.10;99.90;;;;;;5057390;28;20124;-72
2022/01/12 12:27:02;;;;;;;44.95;10.10;;;6.20;99.90;;;;;;5057288;28;20153;-72
2022/01/12 12:29:28;;;;;;;38.50;9.80;;;6.20;99.90;;;;;;5039399;28;20063;-73
2022/01/12 12:31:56;;;;;;;34.22;9.43;;;6.20;99.90;;;;;;5039602;28;20045;-71
2022/01/12 12:34:27;;;;;;;38.95;9.90;;;6.30;99.90;;;;;;5057171;28;20056;-72
2022/01/12 12:37:04;;;;;;;26.65;10.27;;;6.30;99.90;;;;;;5039689;28;20045;-72
2022/01/12 12:39:32;;;;;;;39.35;10.75;;;6.30;99.90;;;;;;5057289;28;20053;-72
2022/01/12 12:41:59;;;;;;;41.22;10.90;;;6.30;99.90;;;;;;5037272;28;20057;-70
2022/01/12 12:44:29;;;;;;;52.70;10.70;;;6.40;99.90;;;;;;5037159;28;20053;-73
2022/01/12 12:47:15;;;;;;;25.92;9.75;;;6.40;99.90;;;;;;5037308;28;20045;-71
2022/01/12 12:49:56;;;;;;;26.92;9.68;;;6.40;99.90;;;;;;5037153;28;20107;-71
2022/01/12 12:52:23;;;;;;;30.58;10.13;;;6.40;99.90;;;;;;5036803;28;20110;-71
2022/01/12 12:54:48;;;;;;;32.22;11.00;;;6.40;99.90;;;;;;5019031;28;20041;-71
2022/01/12 12:57:20;;;;;;;33.50;11.55;;;6.40;99.90;;;;;;5037113;28;20413;-71
2022/01/12 12:59:47;;;;;;;39.88;12.55;;;6.50;99.90;;;;;;5051348;28;20060;-72
2022/01/12 13:02:13;;;;;;;34.97;11.57;;;6.50;99.90;;;;;;5036335;28;20045;-71
2022/01/12 13:04:40;;;;;;;26.30;10.68;;;6.50;99.90;;;;;;5036332;28;20044;-71
2022/01/12 13:07:19;;;;;;;35.38;11.38;;;6.40;99.90;;;;;;5036599;28;20084;-73
2022/01/12 13:09:47;;;;;;;30.33;11.75;;;6.50;99.90;;;;;;5036901;28;20045;-71
2022/01/12 13:12:13;;;;;;;44.00;13.00;;;6.50;99.90;;;;;;5019028;28;20201;-74
2022/01/12 13:14:44;;;;;;;34.70;11.98;;;6.50;99.90;;;;;;5036446;28;20128;-72
2022/01/12 13:17:10;;;;;;;37.05;11.75;;;6.50;99.90;;;;;;5019045;28;20054;-71
2022/01/12 13:22:32;;;;;;;45.33;13.52;;;6.50;99.90;;;;;;5019041;28;20108;-72
2022/01/12 13:25:00;;;;;;;43.45;14.55;;;6.40;99.90;;;;;;5036247;28;20419;-71
2022/01/12 13:27:27;;;;;;;37.45;14.18;;;6.40;99.90;;;;;;5018738;28;20096;-72
2022/01/12 13:29:53;;;;;;;47.55;14.43;;;6.40;99.90;;;;;;5051229;28;20441;-71
2022/01/12 13:32:20;;;;;;;39.10;13.00;;;6.40;99.90;;;;;;5038806;28;20045;-70
2022/01/12 13:35:04;;;;;;;47.15;13.73;;;6.40;99.90;;;;;;5056395;28;20044;-72
2022/01/12 13:37:31;;;;;;;34.10;12.48;;;6.40;99.90;;;;;;5038569;28;20040;-73
2022/01/12 13:40:06;;;;;;;43.25;13.25;;;6.40;99.90;;;;;;5039173;28;20381;-71
2022/01/12 13:42:32;;;;;;;39.22;11.57;;;6.30;99.90;;;;;;5056067;28;20057;-73
2022/01/12 13:45:07;;;;;;;28.40;12.10;;;6.20;99.90;;;;;;5038323;28;20048;-72
2022/01/12 13:47:37;;;;;;;31.02;12.25;;;6.20;99.90;;;;;;5056104;28;20048;-71
2022/01/12 13:50:09;;;;;;;44.38;14.40;;;6.10;99.90;;;;;;5038139;28;20067;-71
2022/01/12 13:52:36;;;;;;;35.05;13.25;;;6.10;99.90;;;;;;5055300;28;20077;-72